createdAt,value
2018-06-01T00:01:02.567Z,25.90
2018-06-01T00:03:30.128Z,25.82
2018-06-01T00:05:57.651Z,25.82
2018-06-01T00:08:25.195Z,25.81
2018-06-01T00:10:52.735Z,25.77
2018-06-01T00:13:20.367Z,25.75
2018-06-01T00:15:47.930Z,25.70
2018-06-01T00:18:15.484Z,25.65
2018-06-01T00:20:43.012Z,25.54
2018-06-01T00:23:10.614Z,25.54
2018-06-01T00:25:38.150Z,25.39
2018-06-01T00:28:05.727Z,25.16
2018-06-01T00:30:33.287Z,25.28
2018-06-01T00:33:00.815Z,25.29
2018-06-01T00:35:28.407Z,25.26
2018-06-01T00:37:55.937Z,25.06
2018-06-01T00:40:23.528Z,25.16
2018-06-01T00:42:51.043Z,25.18
2018-06-01T00:45:18.613Z,25.14
2018-06-01T00:47:46.213Z,25.15
2018-06-01T00:50:13.870Z,25.06
2018-06-01T00:52:41.428Z,25.05
2018-06-01T00:55:20.760Z,25.02
2018-06-01T00:57:48.311Z,25.01
2018-06-01T01:00:15.866Z,24.95
2018-06-01T01:02:43.445Z,24.87
2018-06-01T01:05:11.005Z,24.93
2018-06-01T01:07:38.532Z,24.89
2018-06-01T01:10:06.048Z,24.81
2018-06-01T01:12:33.583Z,24.74
2018-06-01T01:15:01.109Z,24.81
2018-06-01T01:17:28.697Z,24.79
2018-06-01T01:19:56.227Z,24.79
2018-06-01T01:22:23.788Z,24.78
2018-06-01T01:24:51.367Z,24.72
2018-06-01T01:27:18.927Z,24.69
2018-06-01T01:29:46.460Z,24.66
2018-06-01T01:32:14.058Z,24.49
2018-06-01T01:34:41.609Z,24.52
2018-06-01T01:37:09.119Z,24.47
2018-06-01T01:39:36.677Z,24.48
2018-06-01T01:42:04.232Z,24.43
2018-06-01T01:44:31.755Z,24.43
2018-06-01T01:46:59.282Z,24.45
2018-06-01T01:49:26.852Z,24.44
2018-06-01T01:51:54.373Z,24.28
2018-06-01T01:54:21.904Z,24.27
2018-06-01T01:56:49.441Z,24.21
2018-06-01T01:59:16.986Z,24.21
2018-06-01T02:01:44.571Z,24.07
2018-06-01T02:04:12.136Z,24.14
2018-06-01T02:06:39.665Z,24.13
2018-06-01T02:09:07.189Z,24.11
2018-06-01T02:11:34.822Z,23.98
2018-06-01T02:14:02.391Z,23.87
2018-06-01T02:16:29.922Z,23.90
2018-06-01T02:18:57.499Z,23.92
2018-06-01T02:21:25.056Z,23.97
2018-06-01T02:23:52.584Z,23.93
2018-06-01T02:26:20.112Z,23.92
2018-06-01T02:28:47.737Z,23.79
2018-06-01T02:31:15.264Z,23.73
2018-06-01T02:33:42.784Z,23.76
2018-06-01T02:36:10.319Z,23.77
2018-06-01T02:38:37.862Z,23.82
2018-06-01T02:41:05.401Z,23.84
2018-06-01T02:43:32.925Z,23.82
2018-06-01T02:46:00.452Z,23.75
2018-06-01T02:48:27.975Z,23.78
2018-06-01T02:50:55.573Z,23.70
2018-06-01T02:53:23.101Z,23.70
2018-06-01T02:55:50.620Z,23.69
2018-06-01T02:58:18.182Z,23.60
2018-06-01T03:00:45.708Z,23.52
2018-06-01T03:03:13.232Z,23.52
2018-06-01T03:05:40.832Z,23.43
2018-06-01T03:08:08.352Z,23.33
2018-06-01T03:10:35.881Z,23.39
2018-06-01T03:13:03.408Z,23.38
2018-06-01T03:15:30.932Z,23.37
2018-06-01T03:17:58.526Z,23.47
2018-06-01T03:20:26.052Z,23.49
2018-06-01T03:22:53.581Z,23.46
2018-06-01T03:25:21.191Z,23.38
2018-06-01T03:27:48.724Z,23.24
2018-06-01T03:30:16.295Z,23.28
2018-06-01T03:32:43.884Z,23.30
2018-06-01T03:35:11.412Z,23.28
2018-06-01T03:37:38.995Z,23.33
2018-06-01T03:40:06.531Z,23.39
2018-06-01T03:42:34.125Z,23.32
2018-06-01T03:45:01.685Z,23.39
2018-06-01T03:47:29.212Z,23.33
2018-06-01T03:49:56.804Z,23.29
2018-06-01T03:52:24.368Z,23.33
2018-06-01T03:54:51.911Z,23.32
2018-06-01T03:57:19.452Z,23.44
2018-06-01T03:59:46.968Z,23.45
2018-06-01T04:02:14.606Z,23.44
2018-06-01T04:04:42.136Z,23.46
2018-06-01T04:07:09.726Z,23.48
2018-06-01T04:09:37.291Z,23.52
2018-06-01T04:12:04.947Z,23.51
2018-06-01T04:14:32.642Z,23.52
2018-06-01T04:17:01.193Z,23.43
2018-06-01T04:19:28.724Z,23.51
2018-06-01T04:21:56.244Z,23.47
2018-06-01T04:24:23.865Z,23.47
2018-06-01T04:26:51.417Z,23.55
2018-06-01T04:29:18.949Z,23.66
2018-06-01T04:31:46.479Z,23.63
2018-06-01T04:34:14.011Z,23.59
2018-06-01T04:36:41.536Z,23.64
2018-06-01T04:39:09.084Z,23.65
2018-06-01T04:41:36.685Z,23.77
2018-06-01T04:44:04.251Z,23.77
2018-06-01T04:46:31.805Z,23.70
2018-06-01T04:48:59.337Z,23.76
2018-06-01T04:51:26.864Z,23.87
2018-06-01T04:53:54.396Z,23.94
2018-06-01T04:56:21.924Z,24.05
2018-06-01T04:58:49.511Z,24.08
2018-06-01T05:01:17.060Z,24.15
2018-06-01T05:03:44.617Z,24.18
2018-06-01T05:06:12.144Z,24.24
2018-06-01T05:08:39.712Z,24.20
2018-06-01T05:11:07.231Z,24.23
2018-06-01T05:13:34.868Z,24.24
2018-06-01T05:16:02.429Z,24.37
2018-06-01T05:18:29.955Z,24.39
2018-06-01T05:20:57.476Z,24.46
2018-06-01T05:23:25.107Z,24.58
2018-06-01T05:25:52.671Z,24.72
2018-06-01T05:28:20.228Z,24.69
2018-06-01T05:30:47.752Z,24.74
2018-06-01T05:33:15.288Z,24.81
2018-06-01T05:35:42.828Z,24.84
2018-06-01T05:38:10.466Z,25.00
2018-06-01T05:40:38.000Z,25.01
2018-06-01T05:43:05.588Z,25.23
2018-06-01T05:45:33.147Z,25.21
2018-06-01T05:48:00.707Z,25.31
2018-06-01T05:50:28.236Z,25.48
2018-06-01T05:52:55.765Z,25.62
2018-06-01T05:55:23.386Z,25.72
2018-06-01T05:57:50.941Z,25.73
2018-06-01T06:00:18.501Z,25.84
2018-06-01T06:02:46.070Z,26.19
2018-06-01T06:05:13.627Z,26.35
2018-06-01T06:07:41.188Z,26.20
2018-06-01T06:10:08.749Z,26.44
2018-06-01T06:12:36.411Z,26.60
2018-06-01T06:15:03.937Z,26.60
2018-06-01T06:17:31.534Z,27.02
2018-06-01T06:19:59.204Z,27.46
2018-06-01T06:22:26.870Z,27.03
2018-06-01T06:24:54.415Z,26.67
2018-06-01T06:27:21.939Z,27.17
2018-06-01T06:29:49.533Z,27.71
2018-06-01T06:32:17.065Z,27.65
2018-06-01T06:34:44.658Z,27.56
2018-06-01T06:37:12.314Z,28.01
2018-06-01T06:39:39.877Z,28.05
2018-06-01T06:42:07.407Z,27.96
2018-06-01T06:44:34.992Z,28.21
2018-06-01T06:47:02.525Z,28.68
2018-06-01T06:49:30.116Z,28.64
2018-06-01T06:51:57.644Z,28.36
2018-06-01T06:54:25.168Z,28.73
2018-06-01T06:56:52.704Z,29.54
2018-06-01T06:59:20.236Z,29.94
2018-06-01T07:01:47.783Z,30.42
2018-06-01T07:04:15.368Z,30.73
2018-06-01T07:06:42.934Z,30.03
2018-06-01T07:09:10.459Z,29.73
2018-06-01T07:11:38.048Z,30.33
2018-06-01T07:14:05.577Z,30.54
2018-06-01T07:16:33.113Z,31.17
2018-06-01T07:19:00.738Z,30.79
2018-06-01T07:21:28.268Z,31.35
2018-06-01T07:23:55.852Z,32.04
2018-06-01T07:26:23.411Z,31.68
2018-06-01T07:28:50.956Z,31.18
2018-06-01T07:31:18.479Z,31.68
2018-06-01T07:33:46.024Z,30.89
2018-06-01T07:36:13.553Z,30.97
2018-06-01T07:38:41.089Z,30.17
2018-06-01T07:41:08.623Z,30.65
2018-06-01T07:43:36.227Z,30.96
2018-06-01T07:46:03.758Z,30.96
2018-06-01T07:48:31.349Z,30.91
2018-06-01T07:50:58.907Z,31.57
2018-06-01T07:53:26.468Z,31.20
2018-06-01T07:55:54.127Z,31.03
2018-06-01T07:58:21.656Z,31.17
2018-06-01T08:00:49.256Z,31.26
2018-06-01T08:03:16.779Z,30.81
2018-06-01T08:05:44.368Z,31.25
2018-06-01T08:08:11.902Z,31.47
2018-06-01T08:10:39.430Z,31.25
2018-06-01T08:13:07.049Z,31.58
2018-06-01T08:15:34.610Z,32.72
2018-06-01T08:18:02.141Z,32.74
2018-06-01T08:20:29.725Z,33.26
2018-06-01T08:22:57.287Z,33.64
2018-06-01T08:25:24.849Z,32.23
2018-06-01T08:27:52.377Z,32.81
2018-06-01T08:30:19.904Z,32.60
2018-06-01T08:32:47.493Z,33.53
2018-06-01T08:35:15.089Z,33.46
2018-06-01T08:37:42.636Z,33.23
2018-06-01T08:40:10.160Z,33.52
2018-06-01T08:42:37.703Z,35.24
2018-06-01T08:45:05.332Z,35.80
2018-06-01T08:47:32.856Z,36.61
2018-06-01T08:50:00.375Z,36.02
2018-06-01T08:52:28.012Z,36.77
2018-06-01T08:54:55.567Z,36.78
2018-06-01T08:57:23.101Z,38.14
2018-06-01T08:59:50.625Z,38.47
2018-06-01T09:02:18.248Z,39.08
2018-06-01T09:04:45.779Z,39.18
2018-06-01T09:07:13.368Z,39.78
2018-06-01T09:09:40.893Z,40.05
2018-06-01T09:12:08.489Z,41.23
2018-06-01T09:14:36.045Z,42.27
2018-06-01T09:17:03.609Z,38.56
2018-06-01T09:19:31.180Z,38.37
2018-06-01T09:21:58.727Z,42.00
2018-06-01T09:24:26.252Z,41.47
2018-06-01T09:26:53.773Z,40.32
2018-06-01T09:29:21.303Z,40.14
2018-06-01T09:31:48.847Z,39.54
2018-06-01T09:34:16.419Z,39.60
2018-06-01T09:36:43.951Z,38.05
2018-06-01T09:39:11.488Z,37.89
2018-06-01T09:41:39.042Z,37.73
2018-06-01T09:44:06.575Z,37.41
2018-06-01T09:46:34.225Z,37.27
2018-06-01T09:49:01.767Z,37.71
2018-06-01T09:51:29.301Z,35.96
2018-06-01T09:53:56.903Z,36.62
2018-06-01T09:56:24.461Z,37.83
2018-06-01T09:58:51.982Z,36.48
2018-06-01T10:01:25.158Z,36.12
2018-06-01T10:03:52.769Z,35.81
2018-06-01T10:06:20.288Z,35.44
2018-06-01T10:08:47.838Z,36.24
2018-06-01T10:11:15.452Z,37.00
2018-06-01T10:13:42.975Z,36.53
2018-06-01T10:16:10.492Z,36.28
2018-06-01T10:18:38.031Z,37.43
2018-06-01T10:21:05.594Z,37.12
2018-06-01T10:23:33.167Z,38.21
2018-06-01T10:26:00.693Z,37.77
2018-06-01T10:28:28.270Z,38.52
2018-06-01T10:30:55.829Z,37.84
2018-06-01T10:33:23.365Z,38.73
2018-06-01T10:35:50.893Z,39.18
2018-06-01T10:38:18.516Z,39.85
2018-06-01T10:40:46.077Z,39.61
2018-06-01T10:43:13.604Z,39.21
2018-06-01T10:45:41.192Z,39.22
2018-06-01T10:48:08.730Z,38.52
2018-06-01T10:50:36.261Z,38.33
2018-06-01T10:53:03.868Z,37.84
2018-06-01T10:55:31.428Z,37.58
2018-06-01T10:57:58.966Z,36.75
2018-06-01T11:00:26.512Z,36.33
2018-06-01T11:02:54.064Z,34.71
2018-06-01T11:05:21.598Z,34.02
2018-06-01T11:07:49.125Z,33.98
2018-06-01T11:10:16.690Z,34.33
2018-06-01T11:12:44.223Z,33.20
2018-06-01T11:15:11.803Z,32.97
2018-06-01T11:17:39.340Z,32.70
2018-06-01T11:20:06.927Z,33.01
2018-06-01T11:22:34.487Z,33.68
2018-06-01T11:25:02.018Z,33.57
2018-06-01T11:27:29.547Z,33.44
2018-06-01T11:29:57.170Z,33.02
2018-06-01T11:32:24.755Z,33.08
2018-06-01T11:34:52.267Z,32.77
2018-06-01T11:37:19.857Z,32.68
2018-06-01T11:39:47.375Z,32.85
2018-06-01T11:42:14.897Z,32.78
2018-06-01T11:44:42.681Z,32.61
2018-06-01T11:47:10.312Z,32.65
2018-06-01T11:49:38.040Z,32.60
2018-06-01T11:52:05.710Z,32.21
2018-06-01T11:54:33.531Z,32.34
2018-06-01T11:57:01.372Z,32.10
2018-06-01T11:59:29.420Z,32.14
2018-06-01T12:01:56.991Z,32.14
2018-06-01T12:04:24.503Z,31.89
2018-06-01T12:06:52.023Z,31.94
2018-06-01T12:09:19.556Z,31.80
2018-06-01T12:11:47.070Z,31.82
2018-06-01T12:14:14.616Z,31.70
2018-06-01T12:16:42.140Z,31.54
2018-06-01T12:19:09.672Z,31.42
2018-06-01T12:21:37.188Z,31.39
2018-06-01T12:24:04.710Z,31.37
2018-06-01T12:26:32.242Z,31.29
2018-06-01T12:28:59.845Z,31.39
2018-06-01T12:31:27.496Z,31.38
2018-06-01T12:33:55.053Z,31.42
2018-06-01T12:36:22.590Z,31.42
2018-06-01T12:38:50.118Z,31.44
2018-06-01T12:41:17.734Z,31.40
2018-06-01T12:43:45.260Z,31.43
2018-06-01T12:46:12.931Z,31.27
2018-06-01T12:48:40.514Z,31.43
2018-06-01T12:51:08.045Z,31.53
2018-06-01T12:53:35.580Z,31.57
2018-06-01T12:56:03.194Z,31.51
2018-06-01T12:58:30.726Z,31.58
2018-06-01T13:00:58.256Z,31.61
2018-06-01T13:03:25.849Z,31.62
2018-06-01T13:05:53.368Z,31.59
2018-06-01T13:08:20.904Z,31.61
2018-06-01T13:10:48.432Z,31.73
2018-06-01T13:13:15.952Z,31.76
2018-06-01T13:15:43.781Z,31.81
2018-06-01T13:18:11.337Z,31.84
2018-06-01T13:20:38.983Z,31.92
2018-06-01T13:23:06.462Z,31.98
2018-06-01T13:25:33.985Z,32.02
2018-06-01T13:28:01.504Z,32.02
2018-06-01T13:30:29.034Z,32.01
2018-06-01T13:32:56.593Z,31.98
2018-06-01T13:35:24.231Z,32.14
2018-06-01T13:37:51.823Z,32.10
2018-06-01T13:40:19.346Z,31.82
2018-06-01T13:42:46.981Z,31.96
2018-06-01T13:45:14.596Z,32.00
2018-06-01T13:47:42.162Z,31.97
2018-06-01T13:50:09.799Z,32.17
2018-06-01T13:52:37.340Z,32.24
2018-06-01T13:55:05.072Z,32.27
2018-06-01T13:57:32.633Z,32.24
2018-06-01T14:00:00.268Z,32.20
2018-06-01T14:02:27.937Z,32.18
2018-06-01T14:04:55.458Z,32.14
2018-06-01T14:07:23.044Z,32.28
2018-06-01T14:09:50.605Z,32.27
2018-06-01T14:12:18.128Z,32.27
2018-06-01T14:14:45.721Z,32.26
2018-06-01T14:17:13.250Z,32.24
2018-06-01T14:19:40.843Z,32.26
2018-06-01T14:22:08.360Z,32.32
2018-06-01T14:24:35.929Z,32.31
2018-06-01T14:27:03.453Z,32.18
2018-06-01T14:29:30.987Z,32.12
2018-06-01T14:31:58.541Z,32.07
2018-06-01T14:34:26.070Z,32.19
2018-06-01T14:36:53.600Z,32.11
2018-06-01T14:39:21.121Z,32.06
2018-06-01T14:41:48.647Z,32.05
2018-06-01T14:44:16.238Z,32.08
2018-06-01T14:46:43.768Z,32.13
2018-06-01T14:49:11.283Z,32.10
2018-06-01T14:51:38.815Z,32.14
2018-06-01T14:54:06.345Z,32.08
2018-06-01T14:56:33.935Z,32.12
2018-06-01T14:59:01.465Z,32.06
2018-06-01T15:01:28.996Z,32.07
2018-06-01T15:03:56.548Z,31.97
2018-06-01T15:06:24.116Z,31.93
2018-06-01T15:08:51.681Z,31.92
2018-06-01T15:11:19.310Z,31.88
2018-06-01T15:13:46.882Z,31.93
2018-06-01T15:16:14.517Z,31.80
2018-06-01T15:18:42.049Z,31.72
2018-06-01T15:21:09.634Z,31.71
2018-06-01T15:23:37.195Z,31.65
2018-06-01T15:26:04.724Z,31.79
2018-06-01T15:28:32.285Z,31.87
2018-06-01T15:30:59.814Z,31.86
2018-06-01T15:33:27.348Z,31.81
2018-06-01T15:35:54.875Z,31.52
2018-06-01T15:38:22.392Z,31.63
2018-06-01T15:40:49.975Z,31.59
2018-06-01T15:43:17.468Z,31.53
2018-06-01T15:45:45.029Z,31.40
2018-06-01T15:48:12.558Z,31.30
2018-06-01T15:50:40.149Z,31.25
2018-06-01T15:53:07.681Z,31.37
2018-06-01T15:55:35.211Z,31.31
2018-06-01T15:58:02.830Z,31.25
2018-06-01T16:00:30.362Z,31.08
2018-06-01T16:02:57.947Z,30.82
2018-06-01T16:05:25.480Z,30.59
2018-06-01T16:07:53.068Z,30.66
2018-06-01T16:10:20.716Z,30.42
2018-06-01T16:12:48.259Z,30.67
2018-06-01T16:15:15.848Z,30.73
2018-06-01T16:17:43.371Z,30.77
2018-06-01T16:20:10.981Z,30.56
2018-06-01T16:22:38.498Z,30.66
2018-06-01T16:25:06.061Z,30.64
2018-06-01T16:27:34.303Z,29.84
2018-06-01T16:30:01.824Z,29.10
2018-06-01T16:32:29.382Z,28.87
2018-06-01T16:34:56.911Z,28.93
2018-06-01T16:37:24.506Z,28.93
2018-06-01T16:39:52.124Z,29.03
2018-06-01T16:42:19.618Z,29.21
2018-06-01T16:44:47.182Z,28.84
2018-06-01T16:47:14.714Z,28.34
2018-06-01T16:49:42.302Z,28.00
2018-06-01T16:52:09.836Z,27.48
2018-06-01T16:54:37.645Z,27.64
2018-06-01T16:57:05.188Z,27.24
2018-06-01T16:59:32.845Z,26.59
2018-06-01T17:02:00.413Z,26.27
2018-06-01T17:04:27.968Z,25.92
2018-06-01T17:06:55.501Z,25.71
2018-06-01T17:09:23.088Z,25.60
2018-06-01T17:11:50.768Z,25.57
2018-06-01T17:14:18.411Z,25.58
2018-06-01T17:16:45.975Z,25.21
2018-06-01T17:19:13.687Z,24.84
2018-06-01T17:21:41.224Z,24.35
2018-06-01T17:24:08.858Z,23.57
2018-06-01T17:26:36.392Z,22.46
2018-06-01T17:29:03.981Z,22.10
2018-06-01T17:31:31.510Z,21.62
2018-06-01T17:33:59.053Z,21.31
2018-06-01T17:36:26.597Z,21.38
2018-06-01T17:38:54.222Z,21.34
2018-06-01T17:41:21.782Z,-145.19
2018-06-01T17:43:49.338Z,-145.19
2018-06-01T17:46:16.897Z,-145.19
2018-06-01T17:48:44.453Z,-145.19
2018-06-01T17:51:11.988Z,-145.19
2018-06-01T17:53:39.545Z,-145.19
2018-06-01T17:56:07.106Z,-145.19
2018-06-01T17:58:34.653Z,-145.19
2018-06-01T18:01:02.205Z,-145.19
2018-06-01T18:03:29.756Z,-145.19
2018-06-01T18:05:57.343Z,-145.19
2018-06-01T18:08:24.875Z,-145.19
2018-06-01T18:10:52.433Z,-145.19
2018-06-01T18:13:19.984Z,-145.19
2018-06-01T18:15:47.520Z,-145.19
2018-06-01T18:18:15.079Z,-145.19
2018-06-01T18:20:42.637Z,-145.19
2018-06-01T18:23:10.201Z,-145.19
2018-06-01T18:25:37.753Z,-145.19
2018-06-01T18:28:06.047Z,-145.19
2018-06-01T18:30:33.589Z,-145.19
2018-06-01T18:33:01.163Z,-145.19
2018-06-01T18:35:28.711Z,-145.19
2018-06-01T18:37:56.376Z,-145.19
2018-06-01T18:40:23.936Z,-145.19
2018-06-01T18:42:51.499Z,-145.19
2018-06-01T18:45:19.058Z,-145.19
2018-06-01T18:47:46.612Z,-145.19
2018-06-01T18:50:14.168Z,-145.19
2018-06-01T18:52:41.865Z,-145.19
2018-06-01T18:55:09.411Z,-145.19
2018-06-01T18:57:36.955Z,21.45
2018-06-01T19:00:04.553Z,-145.19
2018-06-01T19:02:32.181Z,-145.19
2018-06-01T19:04:59.723Z,21.53
2018-06-01T19:07:27.267Z,21.54
2018-06-01T19:09:55.057Z,21.61
2018-06-01T19:12:22.589Z,21.63
2018-06-01T19:14:50.124Z,21.69
2018-06-01T19:17:17.668Z,21.74
2018-06-01T19:19:45.199Z,21.77
2018-06-01T19:22:12.760Z,21.80
2018-06-01T19:24:40.355Z,21.80
2018-06-01T19:27:07.879Z,21.84
2018-06-01T19:29:35.439Z,21.84
2018-06-01T19:32:02.987Z,21.79
2018-06-01T19:34:30.565Z,21.83
2018-06-01T19:36:58.104Z,21.79
2018-06-01T19:39:25.646Z,21.82
2018-06-01T19:41:53.172Z,21.71
2018-06-01T19:44:20.903Z,21.64
2018-06-01T19:46:48.465Z,21.67
2018-06-01T19:49:16.014Z,21.70
2018-06-01T19:51:43.553Z,21.70
2018-06-01T19:54:11.143Z,21.73
2018-06-01T19:56:38.699Z,21.78
2018-06-01T19:59:06.261Z,21.78
2018-06-01T20:01:33.805Z,21.81
2018-06-01T20:04:01.347Z,21.87
2018-06-01T20:06:28.945Z,21.89
2018-06-01T20:08:56.604Z,21.83
2018-06-01T20:11:24.133Z,21.87
2018-06-01T20:13:51.670Z,21.95
2018-06-01T20:16:19.212Z,21.96
2018-06-01T20:18:46.844Z,22.00
2018-06-01T20:21:14.516Z,22.02
2018-06-01T20:23:42.272Z,22.03
2018-06-01T20:26:09.797Z,22.05
2018-06-01T20:28:37.408Z,22.07
2018-06-01T20:31:05.068Z,22.04
2018-06-01T20:33:32.644Z,22.04
2018-06-01T20:36:00.176Z,22.08
2018-06-01T20:38:27.716Z,22.05
2018-06-01T20:40:55.292Z,22.06
2018-06-01T20:43:22.854Z,22.08
2018-06-01T20:45:50.643Z,22.05
2018-06-01T20:48:18.172Z,22.07
2018-06-01T20:50:45.751Z,22.07
2018-06-01T20:53:13.404Z,22.08
2018-06-01T20:55:40.943Z,21.96
2018-06-01T20:58:08.493Z,21.94
2018-06-01T21:00:36.024Z,21.84
2018-06-01T21:03:03.676Z,21.69
2018-06-01T21:05:31.302Z,21.56
2018-06-01T21:07:58.824Z,21.55
2018-06-01T21:10:26.409Z,21.67
2018-06-01T21:12:53.938Z,21.81
2018-06-01T21:15:21.549Z,21.82
2018-06-01T21:17:49.089Z,21.92
2018-06-01T21:20:16.629Z,21.98
2018-06-01T21:22:44.160Z,21.93
2018-06-01T21:25:11.716Z,21.89
2018-06-01T21:27:39.347Z,21.87
2018-06-01T21:30:06.901Z,21.93
2018-06-01T21:32:34.448Z,21.86
2018-06-01T21:35:01.978Z,21.88
2018-06-01T21:37:29.585Z,21.83
2018-06-01T21:39:57.128Z,21.85
2018-06-01T21:42:24.733Z,21.89
2018-06-01T21:44:52.364Z,21.83
2018-06-01T21:47:19.908Z,21.64
2018-06-01T21:49:47.468Z,21.65
2018-06-01T21:52:15.008Z,21.66
2018-06-01T21:54:42.607Z,21.67
2018-06-01T21:57:10.251Z,21.73
2018-06-01T21:59:37.785Z,21.62
2018-06-01T22:02:05.317Z,21.73
2018-06-01T22:04:32.844Z,21.79
2018-06-01T22:07:00.379Z,21.96
2018-06-01T22:09:27.917Z,22.03
2018-06-01T22:11:55.524Z,22.06
2018-06-01T22:14:23.600Z,22.11
2018-06-01T22:16:51.191Z,22.14
2018-06-01T22:19:18.756Z,22.13
2018-06-01T22:21:46.291Z,22.17
2018-06-01T22:24:13.831Z,22.17
2018-06-01T22:26:41.360Z,22.16
2018-06-01T22:29:08.897Z,22.19
2018-06-01T22:31:36.480Z,22.21
2018-06-01T22:34:04.075Z,22.14
2018-06-01T22:36:31.620Z,22.15
2018-06-01T22:38:59.197Z,22.20
2018-06-01T22:41:26.739Z,22.20
2018-06-01T22:43:54.271Z,22.22
2018-06-01T22:46:21.807Z,22.14
2018-06-01T22:48:49.380Z,22.08
2018-06-01T22:51:16.921Z,22.10
2018-06-01T22:53:44.452Z,22.14
2018-06-01T22:56:11.996Z,22.13
2018-06-01T22:58:39.522Z,22.17
2018-06-01T23:01:07.099Z,22.15
2018-06-01T23:03:34.694Z,22.17
2018-06-01T23:06:02.219Z,22.10
2018-06-01T23:08:29.818Z,22.10
2018-06-01T23:10:57.340Z,22.12
2018-06-01T23:13:24.865Z,22.09
2018-06-01T23:15:52.391Z,21.96
2018-06-01T23:18:19.916Z,21.91
2018-06-01T23:20:47.452Z,21.90
2018-06-01T23:23:15.029Z,21.99
2018-06-01T23:25:42.560Z,22.04
2018-06-01T23:28:10.093Z,22.05
2018-06-01T23:30:37.615Z,21.98
2018-06-01T23:33:05.208Z,22.03
2018-06-01T23:35:32.741Z,22.02
2018-06-01T23:38:00.275Z,22.02
2018-06-01T23:40:27.889Z,22.04
2018-06-01T23:42:55.447Z,22.04
2018-06-01T23:45:22.975Z,22.01
2018-06-01T23:47:50.569Z,21.93
2018-06-01T23:50:18.131Z,21.90
2018-06-01T23:52:45.664Z,21.67
2018-06-01T23:55:13.249Z,21.61
2018-06-01T23:57:40.808Z,21.74
